createdAt,value
2023-03-06T00:01:33.422Z,100363.53
2023-03-06T00:04:08.363Z,100355.06
2023-03-06T00:06:41.707Z,100343.34
2023-03-06T00:09:14.640Z,100353.34
2023-03-06T00:11:47.442Z,100342.97
2023-03-06T00:14:21.613Z,100345.63
2023-03-06T00:16:55.270Z,100349.00
2023-03-06T00:19:28.788Z,100341.81
2023-03-06T00:22:03.124Z,100337.13
2023-03-06T00:24:36.259Z,100345.41
2023-03-06T00:27:09.338Z,100332.78
2023-03-06T00:29:44.700Z,100336.22
2023-03-06T00:32:18.461Z,100327.34
2023-03-06T00:34:52.187Z,100317.06
2023-03-06T00:37:25.945Z,100316.13
2023-03-06T00:39:59.834Z,100322.16
2023-03-06T00:42:32.699Z,100297.75
2023-03-06T00:45:08.487Z,100302.75
2023-03-06T00:47:41.689Z,100320.91
2023-03-06T00:50:14.486Z,100311.78
2023-03-06T00:52:47.343Z,100305.00
2023-03-06T00:55:20.254Z,100299.78
2023-03-06T00:57:53.098Z,100298.38
2023-03-06T01:00:27.430Z,100283.97
2023-03-06T01:03:00.615Z,100289.81
2023-03-06T01:05:36.457Z,100301.97
2023-03-06T01:08:09.316Z,100294.34
2023-03-06T01:10:42.340Z,100292.66
2023-03-06T01:13:15.470Z,100296.25
2023-03-06T01:15:49.750Z,100290.66
2023-03-06T01:18:22.561Z,100281.81
2023-03-06T01:20:55.381Z,100282.47
2023-03-06T01:23:28.203Z,100279.94
2023-03-06T01:26:01.923Z,100284.53
2023-03-06T01:28:35.361Z,100283.63
2023-03-06T01:31:11.464Z,100270.97
2023-03-06T01:33:44.251Z,100278.72
2023-03-06T01:36:17.537Z,100272.59
2023-03-06T01:38:51.371Z,100271.44
2023-03-06T01:41:24.368Z,100277.97
2023-03-06T01:43:57.187Z,100257.13
2023-03-06T01:46:37.858Z,100263.06
2023-03-06T01:49:19.400Z,100241.59
2023-03-06T01:51:56.727Z,100266.19
2023-03-06T01:54:33.567Z,100263.81
2023-03-06T01:57:10.784Z,100268.91
2023-03-06T01:59:44.020Z,100254.97
2023-03-06T02:02:18.592Z,100254.59
2023-03-06T02:04:51.628Z,100252.25
2023-03-06T02:07:24.667Z,100242.91
2023-03-06T02:09:57.469Z,100252.78
2023-03-06T02:12:30.841Z,100249.50
2023-03-06T02:15:04.308Z,100243.66
2023-03-06T02:17:38.641Z,100235.47
2023-03-06T02:20:14.653Z,100237.44
2023-03-06T02:22:54.880Z,100222.97
2023-03-06T02:25:39.584Z,100217.84
2023-03-06T02:28:14.427Z,100221.03
2023-03-06T02:30:49.155Z,100232.06
2023-03-06T02:33:25.637Z,100228.03
2023-03-06T02:36:00.996Z,100219.66
2023-03-06T02:38:38.647Z,100217.28
2023-03-06T02:41:13.220Z,100194.88
2023-03-06T02:43:49.035Z,100210.78
2023-03-06T02:46:22.017Z,100191.84
2023-03-06T02:48:54.913Z,100190.25
2023-03-06T02:51:28.293Z,100193.25
2023-03-06T02:54:01.147Z,100198.81
2023-03-06T02:56:35.361Z,100198.66
2023-03-06T02:59:08.648Z,100190.38
2023-03-06T03:01:41.634Z,100171.72
2023-03-06T03:04:14.596Z,100176.59
2023-03-06T03:06:47.429Z,100175.19
2023-03-06T03:09:20.848Z,100156.09
2023-03-06T03:11:55.122Z,100160.03
2023-03-06T03:14:28.105Z,100172.47
2023-03-06T03:17:02.398Z,100165.31
2023-03-06T03:19:36.236Z,100160.03
2023-03-06T03:22:09.130Z,100170.22
2023-03-06T03:24:42.321Z,100174.34
2023-03-06T03:27:17.382Z,100156.28
2023-03-06T03:29:50.297Z,100173.06
2023-03-06T03:32:23.278Z,100167.09
2023-03-06T03:34:57.006Z,100155.72
2023-03-06T03:37:31.430Z,100177.00
2023-03-06T03:40:06.566Z,100180.13
2023-03-06T03:42:41.237Z,100174.44
2023-03-06T03:45:15.158Z,100179.16
2023-03-06T03:47:48.088Z,100171.53
2023-03-06T03:50:21.094Z,100143.84
2023-03-06T03:52:54.072Z,100158.72
2023-03-06T03:55:27.530Z,100164.09
2023-03-06T03:58:05.517Z,100165.13
2023-03-06T04:00:38.972Z,100148.72
2023-03-06T04:03:17.957Z,100149.78
2023-03-06T04:05:53.894Z,100134.44
2023-03-06T04:08:27.294Z,100153.00
2023-03-06T04:11:00.196Z,100145.47
2023-03-06T04:13:35.839Z,100149.50
2023-03-06T04:16:09.953Z,100123.78
2023-03-06T04:18:44.635Z,100138.97
2023-03-06T04:21:17.516Z,100133.78
2023-03-06T04:23:50.713Z,100127.84
2023-03-06T04:26:23.563Z,100108.66
2023-03-06T04:28:58.443Z,100119.00
2023-03-06T04:31:31.407Z,100114.28
2023-03-06T04:34:04.412Z,100117.22
2023-03-06T04:36:37.699Z,100104.50
2023-03-06T04:39:15.368Z,100108.66
2023-03-06T04:41:48.173Z,100076.47
2023-03-06T04:44:22.840Z,100091.34
2023-03-06T04:46:55.635Z,100108.09
2023-03-06T04:49:28.496Z,100103.38
2023-03-06T04:52:01.704Z,100094.44
2023-03-06T04:54:34.503Z,100098.41
2023-03-06T04:57:07.334Z,100101.31
2023-03-06T04:59:41.526Z,100099.59
2023-03-06T05:02:14.414Z,100091.53
2023-03-06T05:04:47.216Z,100088.69
2023-03-06T05:07:20.047Z,100099.06
2023-03-06T05:09:53.245Z,100071.50
2023-03-06T05:12:26.201Z,100084.84
2023-03-06T05:15:00.317Z,100091.16
2023-03-06T05:17:33.465Z,100090.97
2023-03-06T05:20:08.443Z,100094.06
2023-03-06T05:22:41.411Z,100082.88
2023-03-06T05:25:14.396Z,100072.13
2023-03-06T05:27:47.567Z,100086.06
2023-03-06T05:30:23.135Z,100079.56
2023-03-06T05:32:55.963Z,100076.94
2023-03-06T05:35:29.381Z,100062.91
2023-03-06T05:38:03.115Z,100091.31
2023-03-06T05:40:35.907Z,100081.00
2023-03-06T05:43:09.124Z,100080.41
2023-03-06T05:45:43.318Z,100079.09
2023-03-06T05:48:16.150Z,100078.72
2023-03-06T05:50:56.131Z,100072.34
2023-03-06T05:53:29.269Z,100076.09
2023-03-06T05:56:04.241Z,100074.94
2023-03-06T05:58:37.392Z,100078.94
2023-03-06T06:01:13.293Z,100069.72
2023-03-06T06:03:46.418Z,100052.38
2023-03-06T06:06:19.439Z,100067.06
2023-03-06T06:08:52.229Z,100040.72
2023-03-06T06:11:25.197Z,100043.34
2023-03-06T06:13:57.967Z,100043.53
2023-03-06T06:16:32.427Z,100058.03
2023-03-06T06:19:05.434Z,100057.06
2023-03-06T06:21:38.248Z,100049.94
2023-03-06T06:24:11.039Z,100053.31
2023-03-06T06:26:44.209Z,100052.94
2023-03-06T06:29:19.979Z,100054.91
2023-03-06T06:31:55.205Z,100058.03
2023-03-06T06:34:30.399Z,100055.84
2023-03-06T06:37:03.356Z,100062.34
2023-03-06T06:39:36.327Z,100058.03
2023-03-06T06:42:28.597Z,100062.44
2023-03-06T06:45:02.827Z,100057.53
2023-03-06T06:47:40.905Z,100041.66
2023-03-06T06:50:14.904Z,100055.00
2023-03-06T06:52:47.870Z,100065.34
2023-03-06T06:55:20.716Z,100051.91
2023-03-06T06:57:53.521Z,100049.94
2023-03-06T07:00:27.030Z,100063.66
2023-03-06T07:03:01.540Z,100061.50
2023-03-06T07:05:34.503Z,100037.50
2023-03-06T07:08:07.515Z,100049.75
2023-03-06T07:10:40.349Z,100059.53
2023-03-06T07:13:13.406Z,100062.34
2023-03-06T07:15:46.221Z,100054.53
2023-03-06T07:18:20.347Z,100061.97
2023-03-06T07:20:54.635Z,100060.91
2023-03-06T07:23:27.490Z,100038.25
2023-03-06T07:26:00.354Z,100053.50
2023-03-06T07:28:46.178Z,100054.59
2023-03-06T07:31:27.379Z,100056.69
2023-03-06T07:34:04.728Z,100044.06
2023-03-06T07:36:39.520Z,100050.00
2023-03-06T07:39:12.290Z,100053.16
2023-03-06T07:41:45.315Z,100015.66
2023-03-06T07:44:18.242Z,100032.03
2023-03-06T07:46:51.161Z,100045.16
2023-03-06T07:49:25.437Z,100046.56
2023-03-06T07:51:59.199Z,100018.63
2023-03-06T07:54:32.588Z,100050.88
2023-03-06T07:57:05.377Z,100048.75
2023-03-06T07:59:38.158Z,100048.56
2023-03-06T08:02:11.794Z,100050.38
2023-03-06T08:04:46.119Z,100064.13
2023-03-06T08:07:19.029Z,100060.06
2023-03-06T08:09:52.078Z,100067.03
2023-03-06T08:12:24.876Z,100062.50
2023-03-06T08:14:57.785Z,100066.03
2023-03-06T08:17:30.961Z,100078.34
2023-03-06T08:20:06.601Z,100067.63
2023-03-06T08:22:39.758Z,100073.09
2023-03-06T08:25:14.252Z,100080.22
2023-03-06T08:27:47.770Z,100082.00
2023-03-06T08:30:21.456Z,100075.16
2023-03-06T08:32:54.300Z,100072.88
2023-03-06T08:35:28.478Z,100065.56
2023-03-06T08:38:01.255Z,100077.00
2023-03-06T08:40:34.046Z,100084.38
2023-03-06T08:43:11.308Z,100035.03
2023-03-06T08:45:45.321Z,100080.03
2023-03-06T08:48:18.644Z,100081.94
2023-03-06T08:50:53.524Z,100087.53
2023-03-06T08:53:41.720Z,100071.47
2023-03-06T08:56:16.633Z,100085.47
2023-03-06T08:58:50.125Z,100072.31
2023-03-06T09:01:24.674Z,100077.00
2023-03-06T09:03:59.890Z,100079.44
2023-03-06T09:06:36.401Z,100074.59
2023-03-06T09:09:09.793Z,100074.38
2023-03-06T09:11:42.719Z,100075.41
2023-03-06T09:14:15.549Z,100070.66
2023-03-06T09:16:49.878Z,100070.28
2023-03-06T09:19:23.765Z,100068.84
2023-03-06T09:22:00.899Z,100067.38
2023-03-06T09:24:34.193Z,100065.13
2023-03-06T09:27:07.605Z,100070.63
2023-03-06T09:29:40.374Z,100072.16
2023-03-06T09:32:13.215Z,100045.88
2023-03-06T09:34:46.118Z,100057.94
2023-03-06T09:37:20.525Z,100060.50
2023-03-06T09:39:53.297Z,100045.25
2023-03-06T09:42:28.185Z,100056.69
2023-03-06T09:45:02.078Z,100057.72
2023-03-06T09:47:48.865Z,100052.56
2023-03-06T09:50:33.264Z,100073.28
2023-03-06T09:53:32.829Z,100063.25
2023-03-06T09:56:12.662Z,100049.34
2023-03-06T09:58:50.799Z,100076.09
2023-03-06T10:01:27.915Z,100049.91
2023-03-06T10:04:12.433Z,100074.91
2023-03-06T10:06:49.728Z,100072.72
2023-03-06T10:09:28.170Z,100077.81
2023-03-06T10:12:06.544Z,100067.66
2023-03-06T10:14:47.759Z,100076.75
2023-03-06T10:17:23.904Z,100072.31
2023-03-06T10:19:56.569Z,100077.94
2023-03-06T10:22:32.959Z,100071.88
2023-03-06T10:25:13.577Z,100065.97
2023-03-06T10:27:49.126Z,100070.44
2023-03-06T10:30:32.573Z,100064.94
2023-03-06T10:33:10.342Z,100070.22
2023-03-06T10:35:48.291Z,100069.03
2023-03-06T10:38:23.364Z,100068.97
2023-03-06T10:41:07.626Z,100069.78
2023-03-06T10:43:42.622Z,100067.03
2023-03-06T10:46:28.375Z,100053.50
2023-03-06T10:49:02.586Z,100070.94
2023-03-06T10:51:35.723Z,100074.22
2023-03-06T10:54:20.518Z,100066.38
2023-03-06T10:56:54.676Z,100079.09
2023-03-06T10:59:29.333Z,100077.56
2023-03-06T11:02:26.699Z,100069.09
2023-03-06T11:05:02.077Z,100068.53
2023-03-06T11:07:53.435Z,100072.69
2023-03-06T11:10:27.273Z,100050.94
2023-03-06T11:13:06.092Z,100063.56
2023-03-06T11:15:38.897Z,100059.84
2023-03-06T11:18:31.106Z,100057.59
2023-03-06T11:21:08.871Z,100058.56
2023-03-06T11:23:44.710Z,100067.47
2023-03-06T11:26:29.741Z,100060.25
2023-03-06T11:29:37.510Z,100061.53
2023-03-06T11:32:17.343Z,100063.81
2023-03-06T11:34:54.080Z,100043.31
2023-03-06T11:37:43.265Z,100044.84
2023-03-06T11:40:21.088Z,100059.63
2023-03-06T11:43:04.252Z,100053.97
2023-03-06T11:45:45.866Z,100040.44
2023-03-06T11:48:27.829Z,100064.69
2023-03-06T11:51:07.877Z,100062.44
2023-03-06T11:53:42.699Z,100053.41
2023-03-06T11:56:28.872Z,100061.94
2023-03-06T11:59:24.793Z,100057.22
2023-03-06T12:02:08.003Z,100056.69
2023-03-06T12:04:53.708Z,100059.78
2023-03-06T12:07:33.862Z,100060.53
2023-03-06T12:10:16.684Z,100045.88
2023-03-06T12:13:15.854Z,100035.81
2023-03-06T12:16:05.379Z,100040.47
2023-03-06T12:18:51.055Z,100040.66
2023-03-06T12:21:34.700Z,100045.72
2023-03-06T12:24:25.663Z,100036.44
2023-03-06T12:27:13.393Z,100047.31
2023-03-06T12:30:01.541Z,100044.38
2023-03-06T12:32:47.422Z,100038.72
2023-03-06T12:35:48.365Z,100033.38
2023-03-06T12:39:00.639Z,100037.03
2023-03-06T12:41:43.819Z,100029.50
2023-03-06T12:44:39.047Z,100033.34
2023-03-06T12:47:16.157Z,100028.16
2023-03-06T12:49:54.188Z,100024.63
2023-03-06T12:52:31.966Z,100022.72
2023-03-06T12:55:08.565Z,100015.00
2023-03-06T12:57:45.555Z,100016.06
2023-03-06T13:01:03.719Z,100002.22
2023-03-06T13:03:51.081Z,100006.38
2023-03-06T13:06:49.910Z,100002.34
2023-03-06T13:09:35.460Z,99984.63
2023-03-06T13:12:32.915Z,99993.00
2023-03-06T13:15:30.936Z,99997.53
2023-03-06T13:18:26.504Z,99989.28
2023-03-06T13:20:59.875Z,99974.94
2023-03-06T13:23:51.562Z,99977.00
2023-03-06T13:27:01.003Z,99983.69
2023-03-06T13:30:06.127Z,99981.75
2023-03-06T13:32:39.031Z,99991.75
2023-03-06T13:35:46.844Z,99988.34
2023-03-06T13:38:31.663Z,99958.41
2023-03-06T13:41:43.628Z,99973.56
2023-03-06T13:44:52.178Z,99978.72
2023-03-06T13:48:15.606Z,99971.78
2023-03-06T13:50:45.259Z,99976.69
2023-03-06T13:54:09.109Z,99982.41
2023-03-06T13:57:20.358Z,99981.88
2023-03-06T14:00:24.187Z,99976.41
2023-03-06T14:03:36.033Z,99976.09
2023-03-06T14:06:42.305Z,99975.72
2023-03-06T14:09:24.860Z,99967.63
2023-03-06T14:12:01.506Z,99959.75
2023-03-06T14:14:43.406Z,99958.38
2023-03-06T14:17:26.286Z,99953.25
2023-03-06T14:20:02.584Z,99960.69
2023-03-06T14:22:35.428Z,99955.19
2023-03-06T14:25:17.054Z,99943.50
2023-03-06T14:27:51.523Z,99955.28
2023-03-06T14:30:26.933Z,99942.47
2023-03-06T14:33:01.138Z,99943.91
2023-03-06T14:35:34.241Z,99937.47
2023-03-06T14:38:08.014Z,99921.66
2023-03-06T14:40:44.761Z,99924.31
2023-03-06T14:43:21.429Z,99923.78
2023-03-06T14:45:57.200Z,99917.91
2023-03-06T14:48:41.164Z,99933.88
2023-03-06T14:51:19.949Z,99919.50
2023-03-06T14:53:54.921Z,99915.25
2023-03-06T14:56:28.690Z,99916.00
2023-03-06T14:59:04.100Z,99919.47
2023-03-06T15:01:39.610Z,99922.22
2023-03-06T15:04:25.064Z,99917.03
2023-03-06T15:07:00.148Z,99907.97
2023-03-06T15:09:35.795Z,99912.97
2023-03-06T15:12:30.502Z,99907.63
2023-03-06T15:15:05.712Z,99902.22
2023-03-06T15:17:41.076Z,99910.97
2023-03-06T15:20:42.281Z,99894.84
2023-03-06T15:23:20.837Z,99901.47
2023-03-06T15:25:57.119Z,99890.19
2023-03-06T15:28:35.921Z,99891.13
2023-03-06T15:31:21.650Z,99888.38
2023-03-06T15:34:00.736Z,99881.06
2023-03-06T15:36:37.236Z,99884.91
2023-03-06T15:39:47.493Z,99880.03
2023-03-06T15:42:22.302Z,99884.63
2023-03-06T15:44:56.053Z,99876.03
2023-03-06T15:47:28.940Z,99877.69
2023-03-06T15:50:01.824Z,99848.94
2023-03-06T15:52:36.915Z,99868.69
2023-03-06T15:55:12.145Z,99873.00
2023-03-06T15:57:50.173Z,99854.78
2023-03-06T16:00:28.321Z,99856.28
2023-03-06T16:03:02.858Z,99846.84
2023-03-06T16:05:35.723Z,99838.94
2023-03-06T16:08:10.824Z,99847.59
2023-03-06T16:10:45.339Z,99844.72
2023-03-06T16:13:26.713Z,99838.38
2023-03-06T16:15:59.537Z,99840.44
2023-03-06T16:18:32.311Z,99839.47
2023-03-06T16:21:06.561Z,99821.31
2023-03-06T16:23:41.138Z,99831.44
2023-03-06T16:26:20.386Z,99817.13
2023-03-06T16:28:53.212Z,99829.88
2023-03-06T16:31:26.002Z,99828.53
2023-03-06T16:33:58.902Z,99814.97
2023-03-06T16:36:32.464Z,99828.19
2023-03-06T16:39:07.365Z,99817.31
2023-03-06T16:41:40.235Z,99822.66
2023-03-06T16:44:13.428Z,99825.84
2023-03-06T16:46:48.408Z,99810.69
2023-03-06T16:49:23.573Z,99828.13
2023-03-06T16:51:56.753Z,99831.03
2023-03-06T16:54:30.937Z,99835.00
2023-03-06T16:57:03.853Z,99840.31
2023-03-06T16:59:36.970Z,99795.72
2023-03-06T17:02:10.845Z,99825.16
2023-03-06T17:04:43.742Z,99835.84
2023-03-06T17:07:16.556Z,99846.63
2023-03-06T17:09:50.816Z,99864.44
2023-03-06T17:12:23.671Z,99857.81
2023-03-06T17:14:56.667Z,99837.34
2023-03-06T17:17:29.690Z,99854.06
2023-03-06T17:20:03.202Z,99822.16
2023-03-06T17:22:36.931Z,99839.84
2023-03-06T17:25:11.519Z,99828.75
2023-03-06T17:27:44.430Z,99851.41
2023-03-06T17:30:17.554Z,99847.09
2023-03-06T17:32:50.771Z,99825.78
2023-03-06T17:35:23.566Z,99846.63
2023-03-06T17:37:58.002Z,99845.31
2023-03-06T17:40:34.521Z,99827.94
2023-03-06T17:43:07.411Z,99836.03
2023-03-06T17:45:40.306Z,99847.78
2023-03-06T17:48:13.097Z,99843.72
2023-03-06T17:50:53.900Z,99837.19
2023-03-06T17:53:27.571Z,99837.94
2023-03-06T17:56:03.736Z,99840.59
2023-03-06T17:58:36.907Z,99842.41
2023-03-06T18:01:13.627Z,99834.34
2023-03-06T18:03:48.478Z,99832.53
2023-03-06T18:06:22.147Z,99823.97
2023-03-06T18:08:58.353Z,99819.53
2023-03-06T18:11:32.979Z,99818.09
2023-03-06T18:14:05.856Z,99789.56
2023-03-06T18:16:38.744Z,99814.59
2023-03-06T18:19:12.222Z,99798.22
2023-03-06T18:21:47.206Z,99806.66
2023-03-06T18:24:20.047Z,99807.81
2023-03-06T18:26:54.267Z,99794.22
2023-03-06T18:29:27.096Z,99808.34
2023-03-06T18:32:01.897Z,99803.63
2023-03-06T18:34:35.079Z,99802.28
2023-03-06T18:37:07.934Z,99792.66
2023-03-06T18:39:40.895Z,99791.94
2023-03-06T18:42:15.038Z,99764.53
2023-03-06T18:44:48.786Z,99790.28
2023-03-06T18:47:22.207Z,99753.44
2023-03-06T18:49:55.993Z,99777.03
2023-03-06T18:52:28.794Z,99778.56
2023-03-06T18:55:01.850Z,99752.66
2023-03-06T18:57:36.136Z,99773.53
2023-03-06T19:00:10.042Z,99773.06
2023-03-06T19:02:42.827Z,99767.25
2023-03-06T19:05:15.662Z,99762.13
2023-03-06T19:07:48.465Z,99759.25
2023-03-06T19:10:21.293Z,99759.94
2023-03-06T19:12:55.430Z,99756.09
2023-03-06T19:15:28.207Z,99751.78
2023-03-06T19:18:01.575Z,99757.19
2023-03-06T19:20:34.658Z,99742.84
2023-03-06T19:23:08.242Z,99748.03
2023-03-06T19:25:41.319Z,99735.03
2023-03-06T19:28:15.926Z,99732.97
2023-03-06T19:30:48.714Z,99729.38
2023-03-06T19:33:21.627Z,99730.44
2023-03-06T19:35:54.504Z,99734.16
2023-03-06T19:38:27.395Z,99725.97
2023-03-06T19:41:00.941Z,99716.97
2023-03-06T19:43:35.383Z,99709.53
2023-03-06T19:46:12.541Z,99708.19
2023-03-06T19:48:45.686Z,99703.66
2023-03-06T19:51:18.560Z,99697.03
2023-03-06T19:53:51.475Z,99699.78
2023-03-06T19:56:26.712Z,99689.69
2023-03-06T19:59:00.967Z,99685.03
2023-03-06T20:01:34.363Z,99673.81
2023-03-06T20:04:07.331Z,99669.63
2023-03-06T20:06:40.628Z,99676.97
2023-03-06T20:09:13.654Z,99670.44
2023-03-06T20:11:46.461Z,99668.31
2023-03-06T20:14:20.994Z,99641.75
2023-03-06T20:16:54.218Z,99655.47
2023-03-06T20:19:27.034Z,99659.28
2023-03-06T20:21:59.869Z,99649.81
2023-03-06T20:24:32.837Z,99640.28
2023-03-06T20:27:06.027Z,99638.47
2023-03-06T20:29:43.207Z,99628.66
2023-03-06T20:32:16.393Z,99625.50
2023-03-06T20:34:49.259Z,99628.66
2023-03-06T20:37:22.142Z,99623.84
2023-03-06T20:39:55.054Z,99625.06
2023-03-06T20:42:28.107Z,99617.97
2023-03-06T20:45:02.689Z,99606.06
2023-03-06T20:47:35.661Z,99603.41
2023-03-06T20:50:09.226Z,99610.88
2023-03-06T20:52:42.381Z,99604.63
2023-03-06T20:55:15.386Z,99616.63
2023-03-06T20:57:50.174Z,99608.22
2023-03-06T21:00:24.311Z,99604.75
2023-03-06T21:02:57.182Z,99589.72
2023-03-06T21:05:29.982Z,99588.50
2023-03-06T21:08:02.806Z,99602.22
2023-03-06T21:10:37.812Z,99584.91
2023-03-06T21:13:10.482Z,99588.28
2023-03-06T21:15:47.730Z,99577.56
2023-03-06T21:18:21.329Z,99581.53
2023-03-06T21:20:54.283Z,99567.63
2023-03-06T21:23:27.251Z,99552.34
2023-03-06T21:26:00.667Z,99563.38
2023-03-06T21:28:33.688Z,99555.84
2023-03-06T21:31:09.432Z,99555.13
2023-03-06T21:33:42.675Z,99568.09
2023-03-06T21:36:16.121Z,99546.44
2023-03-06T21:38:50.060Z,99530.34
2023-03-06T21:41:25.062Z,99481.34
2023-03-06T21:43:58.275Z,99531.56
2023-03-06T21:46:33.346Z,99508.25
2023-03-06T21:49:06.738Z,99529.88
2023-03-06T21:51:39.719Z,99514.03
2023-03-06T21:54:12.994Z,99515.34
2023-03-06T21:56:45.869Z,99511.41
2023-03-06T21:59:18.669Z,99508.97
2023-03-06T22:01:52.921Z,99500.59
2023-03-06T22:04:25.872Z,99493.63
2023-03-06T22:06:58.672Z,99499.38
2023-03-06T22:09:31.466Z,99500.09
2023-03-06T22:12:04.710Z,99496.00
2023-03-06T22:14:37.896Z,99492.66
2023-03-06T22:17:12.037Z,99480.63
2023-03-06T22:19:44.821Z,99482.31
2023-03-06T22:22:17.699Z,99475.59
2023-03-06T22:24:50.459Z,99481.47
2023-03-06T22:27:23.420Z,99480.72
2023-03-06T22:29:56.244Z,99465.59
2023-03-06T22:32:30.417Z,99459.25
2023-03-06T22:35:03.463Z,99463.53
2023-03-06T22:37:36.316Z,99456.81
2023-03-06T22:40:10.534Z,99459.56
2023-03-06T22:42:43.411Z,99442.59
2023-03-06T22:45:16.638Z,99433.13
2023-03-06T22:47:53.390Z,99434.47
2023-03-06T22:50:28.092Z,99444.19
2023-03-06T22:53:01.107Z,99451.00
2023-03-06T22:55:35.771Z,99426.69
2023-03-06T22:58:08.561Z,99417.09
2023-03-06T23:00:41.391Z,99417.22
2023-03-06T23:03:15.729Z,99423.22
2023-03-06T23:05:48.483Z,99407.38
2023-03-06T23:08:21.876Z,99426.09
2023-03-06T23:10:54.686Z,99421.53
2023-03-06T23:13:46.670Z,99404.88
2023-03-06T23:16:38.412Z,99409.31
2023-03-06T23:19:31.725Z,99395.16
2023-03-06T23:22:22.836Z,99377.91
2023-03-06T23:25:14.306Z,99391.09
2023-03-06T23:27:50.096Z,99389.53
2023-03-06T23:30:24.357Z,99402.63
2023-03-06T23:32:57.478Z,99368.41
2023-03-06T23:35:33.951Z,99387.00
2023-03-06T23:38:07.134Z,99382.47
2023-03-06T23:40:40.674Z,99357.28
2023-03-06T23:43:13.514Z,99371.91
2023-03-06T23:45:53.525Z,99365.16
2023-03-06T23:48:27.677Z,99351.72
2023-03-06T23:51:05.240Z,99344.75
2023-03-06T23:53:38.010Z,99368.06
2023-03-06T23:56:11.120Z,99363.59
2023-03-06T23:58:45.370Z,99356.53
